Time;durP1;ratioP1;P1;durP2;ratioP2;P2;SDS_P1;SDS_P2;PMS_P1;PMS_P2;Temp;Humidity;BMP_temperature;BMP_pressure;BME280_temperature;BME280_humidity;BME280_pressure;Samples;Min_cycle;Max_cycle;Signal;HPM_P1;HPM_P2
2024/01/24 00:01:16;;;;;;;514.92;246.57;;;1.10;99.90;;;;;;6241517;23;20027;-77
2024/01/24 00:03:43;;;;;;;456.60;225.35;;;1.10;99.90;;;;;;6203464;23;20509;-79
2024/01/24 00:06:11;;;;;;;500.65;243.95;;;1.10;99.90;;;;;;6234055;23;20019;-79
2024/01/24 00:08:40;;;;;;;415.70;203.20;;;1.10;99.90;;;;;;6224845;23;20058;-80
2024/01/24 00:11:07;;;;;;;367.65;189.82;;;1.00;99.90;;;;;;6224009;23;20020;-76
2024/01/24 00:13:34;;;;;;;412.02;195.23;;;1.10;99.90;;;;;;6224814;23;20446;-78
2024/01/24 00:16:04;;;;;;;378.15;203.77;;;1.10;99.90;;;;;;6229182;23;20024;-76
2024/01/24 00:18:31;;;;;;;439.25;224.38;;;1.20;99.90;;;;;;6220076;23;20472;-79
2024/01/24 00:20:59;;;;;;;395.98;205.80;;;1.30;99.90;;;;;;6188007;23;20020;-79
2024/01/24 00:23:27;;;;;;;377.27;197.50;;;1.10;99.90;;;;;;6226312;23;20095;-78
2024/01/24 00:25:55;;;;;;;443.13;234.63;;;1.10;99.90;;;;;;6225362;23;20012;-79
2024/01/24 00:28:26;;;;;;;390.63;212.20;;;1.10;99.90;;;;;;6226879;23;20009;-77
2024/01/24 00:30:55;;;;;;;320.73;166.52;;;1.00;99.90;;;;;;6230268;23;20017;-77
2024/01/24 00:33:24;;;;;;;341.33;168.40;;;0.90;99.90;;;;;;6227851;23;20027;-77
2024/01/24 00:35:51;;;;;;;339.80;183.75;;;0.80;99.90;;;;;;6226808;23;20016;-77
2024/01/24 00:38:18;;;;;;;372.05;194.20;;;0.80;99.90;;;;;;6226221;23;20028;-77
2024/01/24 00:40:46;;;;;;;345.85;192.52;;;0.90;99.90;;;;;;6231327;23;20012;-77
2024/01/24 00:43:15;;;;;;;347.98;181.60;;;0.90;99.90;;;;;;6190277;23;20023;-77
2024/01/24 00:45:42;;;;;;;335.02;172.98;;;0.80;99.90;;;;;;6228345;23;20453;-79
2024/01/24 00:48:10;;;;;;;332.17;174.38;;;0.70;99.90;;;;;;6187494;23;20013;-79
2024/01/24 00:50:37;;;;;;;302.88;160.63;;;0.80;99.90;;;;;;6223655;23;20441;-79
2024/01/24 00:53:06;;;;;;;328.63;165.52;;;0.80;99.90;;;;;;6224947;23;20008;-78
2024/01/24 00:55:33;;;;;;;326.52;166.23;;;0.80;99.90;;;;;;6224381;23;20091;-78
2024/01/24 00:58:01;;;;;;;329.80;160.50;;;0.80;99.90;;;;;;6223217;23;20373;-79
2024/01/24 01:00:30;;;;;;;342.17;175.05;;;0.80;99.90;;;;;;6223546;23;20024;-77
2024/01/24 01:02:58;;;;;;;373.77;184.27;;;0.80;99.90;;;;;;6224000;23;20023;-77
2024/01/24 01:05:26;;;;;;;360.73;180.30;;;0.80;99.90;;;;;;6222363;23;20083;-78
2024/01/24 01:07:53;;;;;;;311.45;163.93;;;0.70;99.90;;;;;;6223164;23;20070;-79
2024/01/24 01:10:20;;;;;;;341.38;168.60;;;0.70;99.90;;;;;;6186073;23;20029;-79
2024/01/24 01:12:48;;;;;;;342.52;170.75;;;0.70;99.90;;;;;;6223192;23;20622;-77
2024/01/24 01:15:16;;;;;;;288.77;149.55;;;0.60;99.90;;;;;;6221995;23;20012;-77
2024/01/24 01:17:44;;;;;;;356.05;153.02;;;0.60;99.90;;;;;;6222703;23;20017;-77
2024/01/24 01:20:14;;;;;;;287.35;142.45;;;0.70;99.90;;;;;;6186961;23;20453;-76
2024/01/24 01:22:41;;;;;;;240.50;120.88;;;0.50;99.90;;;;;;6222027;23;20020;-78
2024/01/24 01:25:09;;;;;;;299.55;141.10;;;0.40;99.90;;;;;;6222839;23;20025;-79
2024/01/24 01:27:37;;;;;;;383.17;159.02;;;0.40;99.90;;;;;;6222686;23;20013;-78
2024/01/24 01:30:05;;;;;;;432.98;163.35;;;0.40;99.90;;;;;;6223013;23;20017;-78
2024/01/24 01:32:33;;;;;;;254.43;128.80;;;0.40;99.90;;;;;;6222657;23;20092;-78
2024/01/24 01:35:02;;;;;;;374.63;158.73;;;0.40;99.90;;;;;;6188469;23;20016;-79
2024/01/24 01:37:29;;;;;;;348.27;141.05;;;0.40;99.90;;;;;;6243359;23;20009;-77
2024/01/24 01:39:57;;;;;;;308.23;138.70;;;0.40;99.90;;;;;;6231518;23;20008;-77
2024/01/24 01:42:24;;;;;;;270.40;127.13;;;0.40;99.90;;;;;;6203362;23;20088;-79
2024/01/24 01:44:53;;;;;;;303.45;133.73;;;0.50;99.90;;;;;;6198810;23;20023;-79
2024/01/24 01:47:21;;;;;;;261.77;126.65;;;0.40;99.90;;;;;;6235475;23;20016;-79
2024/01/24 01:49:49;;;;;;;274.58;126.60;;;0.40;99.90;;;;;;6250660;22;20020;-77
2024/01/24 01:52:18;;;;;;;263.95;122.15;;;0.40;99.90;;;;;;6207282;23;20024;-77
2024/01/24 01:54:46;;;;;;;250.93;119.30;;;0.30;99.90;;;;;;6228637;23;20330;-77
2024/01/24 01:57:14;;;;;;;236.50;119.60;;;0.20;99.90;;;;;;6167270;23;20052;-73
2024/01/24 01:59:43;;;;;;;251.32;122.47;;;0.30;99.90;;;;;;6184757;23;20025;-74
2024/01/24 02:02:11;;;;;;;280.98;134.43;;;0.20;99.90;;;;;;6199903;23;20009;-76
2024/01/24 02:04:39;;;;;;;251.98;121.60;;;0.20;99.90;;;;;;6201322;23;20017;-74
2024/01/24 02:07:06;;;;;;;267.25;131.00;;;0.30;99.90;;;;;;6137101;23;20461;-76
2024/01/24 02:09:36;;;;;;;305.92;141.82;;;0.20;99.90;;;;;;6129528;23;20045;-74
2024/01/24 02:12:03;;;;;;;324.48;144.30;;;0.20;99.90;;;;;;6164670;23;20446;-74
2024/01/24 02:14:31;;;;;;;233.63;117.70;;;0.00;99.90;;;;;;6127028;23;20013;-74
2024/01/24 02:16:58;;;;;;;252.85;120.70;;;0.10;99.90;;;;;;6163567;23;20017;-73
2024/01/24 02:19:26;;;;;;;236.85;114.65;;;0.10;99.90;;;;;;6156638;23;20021;-75
2024/01/24 02:21:54;;;;;;;215.00;103.63;;;0.00;99.90;;;;;;6178012;23;20068;-76
2024/01/24 02:24:23;;;;;;;220.80;105.45;;;0.00;99.90;;;;;;6126947;23;20312;-76
2024/01/24 02:26:50;;;;;;;222.20;105.68;;;0.00;99.90;;;;;;6127386;23;20025;-74
2024/01/24 02:29:24;;;;;;;222.38;107.78;;;0.00;99.90;;;;;;6150521;23;20009;-75
2024/01/24 02:31:52;;;;;;;215.45;105.13;;;-0.10;99.90;;;;;;6151092;23;20037;-75
2024/01/24 02:34:19;;;;;;;214.30;103.82;;;0.00;99.90;;;;;;6166222;23;20092;-76
2024/01/24 02:36:47;;;;;;;198.68;98.43;;;0.10;99.90;;;;;;6170186;23;20017;-76
2024/01/24 02:39:14;;;;;;;186.13;96.25;;;0.10;99.90;;;;;;6178851;23;20013;-75
2024/01/24 02:41:43;;;;;;;227.30;103.32;;;0.10;99.90;;;;;;6189013;23;20008;-74
2024/01/24 02:44:10;;;;;;;241.68;107.55;;;0.10;99.90;;;;;;6160909;23;20338;-74
2024/01/24 02:46:38;;;;;;;208.38;99.72;;;0.00;99.90;;;;;;6163430;23;20017;-74
2024/01/24 02:49:08;;;;;;;194.75;97.72;;;0.00;99.90;;;;;;6165296;23;20024;-74
2024/01/24 02:51:35;;;;;;;197.55;98.90;;;0.00;99.90;;;;;;6166459;23;20017;-74
2024/01/24 02:54:04;;;;;;;239.90;101.40;;;-0.10;99.90;;;;;;6129128;23;20467;-74
2024/01/24 02:56:33;;;;;;;225.95;98.72;;;-0.10;99.90;;;;;;6162885;23;20430;-73
2024/01/24 02:59:02;;;;;;;187.20;85.72;;;-0.10;99.90;;;;;;6152318;23;20132;-74
2024/01/24 03:01:29;;;;;;;174.77;87.40;;;-0.30;99.90;;;;;;6133274;23;20028;-76
2024/01/24 03:03:58;;;;;;;381.60;110.97;;;-0.30;99.90;;;;;;6164862;23;20078;-74
2024/01/24 03:06:25;;;;;;;215.10;99.78;;;-0.30;99.90;;;;;;6165997;23;20017;-73
2024/01/24 03:08:56;;;;;;;185.50;92.65;;;-0.40;99.90;;;;;;6154652;23;20053;-73
2024/01/24 03:11:23;;;;;;;232.80;100.72;;;-0.40;99.90;;;;;;6167108;23;20469;-75
2024/01/24 03:13:51;;;;;;;259.10;108.68;;;-0.40;99.90;;;;;;6164953;23;20502;-73
2024/01/24 03:16:20;;;;;;;209.07;92.03;;;-0.30;99.90;;;;;;6127087;23;20607;-74
2024/01/24 03:18:48;;;;;;;260.98;106.47;;;-0.30;99.90;;;;;;6127729;23;20343;-74
2024/01/24 03:21:17;;;;;;;251.75;104.72;;;-0.30;99.90;;;;;;6163434;23;20040;-74
2024/01/24 03:23:45;;;;;;;240.93;107.20;;;-0.40;99.90;;;;;;6189004;23;20017;-74
2024/01/24 03:26:15;;;;;;;214.88;101.38;;;-0.40;99.90;;;;;;6178568;23;20077;-75
2024/01/24 03:28:42;;;;;;;201.23;97.15;;;-0.40;99.90;;;;;;6161057;23;20105;-75
2024/01/24 03:31:10;;;;;;;205.30;101.10;;;-0.30;99.90;;;;;;6165488;23;20021;-74
2024/01/24 03:33:39;;;;;;;228.23;102.55;;;-0.30;99.90;;;;;;6165633;23;20018;-72
2024/01/24 03:36:07;;;;;;;259.02;116.53;;;-0.20;99.90;;;;;;6129517;23;20049;-73
2024/01/24 03:38:35;;;;;;;183.75;93.55;;;-0.30;99.90;;;;;;6130937;23;20017;-74
2024/01/24 03:41:03;;;;;;;213.68;98.65;;;-0.30;99.90;;;;;;6131150;23;20080;-74
2024/01/24 03:43:30;;;;;;;213.63;102.53;;;-0.40;99.90;;;;;;6129287;23;20021;-74
2024/01/24 03:45:59;;;;;;;215.02;97.45;;;-0.50;99.90;;;;;;6171500;23;20032;-74
2024/01/24 03:48:27;;;;;;;193.85;95.70;;;-0.50;99.90;;;;;;6164628;23;20439;-73
2024/01/24 03:50:56;;;;;;;163.18;87.03;;;-0.50;99.90;;;;;;6173721;23;20355;-75
2024/01/24 03:53:23;;;;;;;169.07;83.82;;;-0.40;99.90;;;;;;6140966;23;20021;-75
2024/01/24 03:55:51;;;;;;;158.82;83.63;;;-0.30;99.90;;;;;;6180192;23;20020;-75
2024/01/24 03:58:18;;;;;;;159.88;82.25;;;-0.50;99.90;;;;;;6173168;23;20013;-76
2024/01/24 04:00:46;;;;;;;149.48;83.15;;;-0.50;99.90;;;;;;6135501;23;20080;-75
2024/01/24 04:03:13;;;;;;;207.57;87.32;;;-0.60;99.90;;;;;;6142348;23;20021;-77
2024/01/24 04:05:41;;;;;;;172.88;84.22;;;-0.40;99.90;;;;;;6139858;23;20105;-75
2024/01/24 04:08:10;;;;;;;168.70;83.13;;;-0.60;99.90;;;;;;6168292;23;20004;-76
2024/01/24 04:10:37;;;;;;;151.95;80.57;;;-0.60;99.90;;;;;;6131871;23;20021;-73
2024/01/24 04:13:06;;;;;;;146.10;79.65;;;-0.60;99.90;;;;;;6160423;23;20037;-73
2024/01/24 04:15:33;;;;;;;174.15;82.80;;;-0.60;99.90;;;;;;6152686;23;20332;-73
2024/01/24 04:18:01;;;;;;;144.23;75.70;;;-0.60;99.90;;;;;;6153275;23;20017;-74
2024/01/24 04:20:29;;;;;;;181.98;85.95;;;-0.60;99.90;;;;;;6154073;23;20020;-74
2024/01/24 04:22:56;;;;;;;151.25;79.97;;;-0.60;99.90;;;;;;6130971;23;20480;-74
2024/01/24 04:25:25;;;;;;;155.70;77.65;;;-0.50;99.90;;;;;;6166912;23;20096;-74
2024/01/24 04:27:52;;;;;;;130.32;70.25;;;-0.50;99.90;;;;;;6152979;23;20104;-74
2024/01/24 04:30:20;;;;;;;123.78;68.13;;;-0.40;99.90;;;;;;6128016;23;20032;-74
2024/01/24 04:32:47;;;;;;;114.47;61.58;;;-0.40;99.90;;;;;;6129659;23;20430;-74
2024/01/24 04:35:15;;;;;;;119.25;63.33;;;-0.30;99.90;;;;;;6163221;23;20085;-73
2024/01/24 04:37:42;;;;;;;117.85;63.10;;;-0.40;99.90;;;;;;6163458;23;20020;-74
2024/01/24 04:40:11;;;;;;;129.00;69.35;;;-0.50;99.90;;;;;;6163415;23;20013;-75
2024/01/24 04:42:40;;;;;;;129.93;68.20;;;-0.60;99.90;;;;;;6164382;23;20021;-72
2024/01/24 04:45:10;;;;;;;132.48;69.45;;;-0.50;99.90;;;;;;6163578;23;20024;-73
2024/01/24 04:47:42;;;;;;;144.15;70.35;;;-0.60;99.90;;;;;;6164075;23;20097;-75
2024/01/24 04:50:11;;;;;;;153.48;73.80;;;-0.50;99.90;;;;;;6127175;23;20029;-75
2024/01/24 04:52:38;;;;;;;170.00;77.10;;;-0.50;99.90;;;;;;6163660;23;20464;-75
2024/01/24 04:55:11;;;;;;;223.55;79.55;;;-0.50;99.90;;;;;;6127123;23;20028;-77
2024/01/24 04:57:41;;;;;;;198.48;78.90;;;-0.50;99.90;;;;;;6163214;23;20097;-74
2024/01/24 05:00:11;;;;;;;221.45;83.70;;;-0.60;99.90;;;;;;6128285;23;20382;-75
2024/01/24 05:02:39;;;;;;;367.75;91.72;;;-0.40;99.90;;;;;;6163823;23;20068;-75
2024/01/24 05:05:08;;;;;;;251.90;86.00;;;-0.80;99.90;;;;;;6163566;23;20013;-75
2024/01/24 05:07:35;;;;;;;197.77;81.40;;;-0.90;99.90;;;;;;6153347;23;20018;-76
2024/01/24 05:10:03;;;;;;;180.75;79.00;;;-0.80;99.90;;;;;;6129079;23;20357;-75
2024/01/24 05:12:31;;;;;;;187.35;82.00;;;-0.80;99.90;;;;;;6164482;23;20017;-74
2024/01/24 05:15:00;;;;;;;187.90;82.38;;;-0.80;99.90;;;;;;6163681;23;20732;-74
2024/01/24 05:17:28;;;;;;;170.20;78.18;;;-0.70;99.90;;;;;;6153122;23;20026;-74
2024/01/24 05:19:55;;;;;;;208.43;85.72;;;-0.80;99.90;;;;;;6128399;23;20026;-76
2024/01/24 05:22:23;;;;;;;182.05;81.55;;;-0.60;99.90;;;;;;6165357;23;20111;-75
2024/01/24 05:24:50;;;;;;;210.05;97.03;;;-0.70;99.90;;;;;;6163691;23;20024;-75
2024/01/24 05:27:18;;;;;;;191.95;89.35;;;-0.80;99.90;;;;;;6163489;23;20445;-74
2024/01/24 05:29:47;;;;;;;179.57;89.72;;;-0.90;99.90;;;;;;6163789;23;20021;-74
2024/01/24 05:32:16;;;;;;;169.35;83.70;;;-0.80;99.90;;;;;;6128104;23;20072;-75
2024/01/24 05:34:43;;;;;;;158.43;81.40;;;-0.70;99.90;;;;;;6130491;23;20017;-74
2024/01/24 05:37:11;;;;;;;155.60;81.22;;;-0.80;99.90;;;;;;6167618;23;20039;-74
2024/01/24 05:39:38;;;;;;;166.15;83.80;;;-0.90;99.90;;;;;;6138233;23;20033;-74
2024/01/24 05:42:07;;;;;;;186.32;88.63;;;-0.70;99.90;;;;;;6175300;23;20097;-75
2024/01/24 05:44:35;;;;;;;169.82;83.60;;;-0.90;99.90;;;;;;6169474;23;20009;-74
2024/01/24 05:47:02;;;;;;;177.52;85.50;;;-0.80;99.90;;;;;;6129859;23;20044;-74
2024/01/24 05:49:35;;;;;;;170.10;84.30;;;-0.80;99.90;;;;;;6164834;23;20039;-76
2024/01/24 05:52:02;;;;;;;182.50;86.35;;;-0.80;99.90;;;;;;6185166;23;20017;-73
2024/01/24 05:54:30;;;;;;;163.15;79.75;;;-1.00;99.90;;;;;;6152850;23;20694;-73
2024/01/24 05:56:58;;;;;;;201.25;86.57;;;-1.00;99.90;;;;;;6125927;23;20101;-74
2024/01/24 05:59:25;;;;;;;260.85;97.97;;;-1.00;99.90;;;;;;6131174;23;20020;-75
2024/01/24 06:01:53;;;;;;;200.82;92.93;;;-1.00;99.90;;;;;;6135253;23;20045;-74
2024/01/24 06:04:20;;;;;;;183.07;90.40;;;-1.00;99.90;;;;;;6148114;23;20018;-76
2024/01/24 06:06:49;;;;;;;191.20;88.75;;;-0.90;99.90;;;;;;6160889;23;20090;-74
2024/01/24 06:09:20;;;;;;;169.23;86.45;;;-0.90;99.90;;;;;;6145047;23;20086;-76
2024/01/24 06:11:48;;;;;;;211.63;96.30;;;-0.80;99.90;;;;;;6134423;23;20073;-74
2024/01/24 06:14:16;;;;;;;200.48;95.00;;;-1.00;99.90;;;;;;6133861;23;20014;-74
2024/01/24 06:16:43;;;;;;;197.52;97.57;;;-1.10;99.90;;;;;;6133500;23;20398;-74
2024/01/24 06:19:11;;;;;;;228.45;106.53;;;-1.10;99.90;;;;;;6122736;23;20435;-74
2024/01/24 06:21:39;;;;;;;245.57;109.43;;;-1.00;99.90;;;;;;6124017;23;20037;-76
2024/01/24 06:24:09;;;;;;;216.18;101.20;;;-1.00;99.90;;;;;;6134896;23;20097;-74
2024/01/24 06:26:37;;;;;;;276.63;109.72;;;-0.90;99.90;;;;;;6148221;23;20030;-75
2024/01/24 06:29:05;;;;;;;278.10;109.03;;;-0.80;99.90;;;;;;6151644;23;20030;-75
2024/01/24 06:31:33;;;;;;;187.68;95.15;;;-0.90;99.90;;;;;;6142799;23;20026;-78
2024/01/24 06:34:00;;;;;;;168.13;88.43;;;-1.10;99.90;;;;;;6140005;23;20029;-75
2024/01/24 06:36:28;;;;;;;200.07;102.47;;;-1.00;99.90;;;;;;6136412;23;20022;-76
2024/01/24 06:38:56;;;;;;;184.77;100.10;;;-1.10;99.90;;;;;;6147310;23;20214;-74
2024/01/24 06:41:26;;;;;;;202.27;102.30;;;-1.00;99.90;;;;;;6146765;23;20054;-75
2024/01/24 06:43:54;;;;;;;182.43;96.45;;;-1.10;99.90;;;;;;6147914;23;20692;-75
2024/01/24 06:46:23;;;;;;;165.95;89.90;;;-1.00;99.90;;;;;;6147161;23;20077;-74
2024/01/24 06:48:50;;;;;;;190.20;94.80;;;-0.90;99.90;;;;;;6134099;23;20486;-76
2024/01/24 06:51:18;;;;;;;187.82;93.13;;;-0.90;99.90;;;;;;6133894;23;20022;-74
2024/01/24 06:53:46;;;;;;;197.70;101.00;;;-0.90;99.90;;;;;;6134294;23;20096;-74
2024/01/24 06:56:14;;;;;;;210.93;105.82;;;-0.90;99.90;;;;;;6123245;23;20018;-75
2024/01/24 06:58:43;;;;;;;196.38;99.63;;;-0.80;99.90;;;;;;6123347;23;20018;-74
2024/01/24 07:01:11;;;;;;;206.98;108.97;;;-0.80;99.90;;;;;;6133867;23;20070;-74
2024/01/24 07:03:39;;;;;;;213.70;109.25;;;-0.70;99.90;;;;;;6122033;23;20029;-76
2024/01/24 07:06:06;;;;;;;201.80;107.68;;;-0.70;99.90;;;;;;6135540;23;20489;-76
2024/01/24 07:08:34;;;;;;;179.20;99.45;;;-0.60;99.90;;;;;;6121527;23;20014;-74
2024/01/24 07:11:02;;;;;;;189.70;101.68;;;-0.50;99.90;;;;;;6132647;23;20022;-76
2024/01/24 07:13:30;;;;;;;203.55;108.32;;;-0.40;99.90;;;;;;6133359;23;20073;-75
2024/01/24 07:16:02;;;;;;;189.93;106.35;;;-0.30;99.90;;;;;;6133835;23;20014;-74
2024/01/24 07:18:31;;;;;;;184.38;104.25;;;-0.20;99.90;;;;;;6145483;23;20343;-74
2024/01/24 07:20:58;;;;;;;186.88;105.30;;;0.00;99.90;;;;;;6121682;23;20033;-73
2024/01/24 07:23:26;;;;;;;185.02;102.65;;;0.10;1.20;;;;;;6121923;23;20451;-73
2024/01/24 07:25:54;;;;;;;195.70;106.93;;;0.20;1.00;;;;;;6132788;23;20432;-75
2024/01/24 07:28:23;;;;;;;183.80;105.30;;;0.20;1.00;;;;;;6122327;23;20101;-74
2024/01/24 07:30:51;;;;;;;175.98;99.13;;;0.10;99.90;;;;;;6122362;23;20459;-74
2024/01/24 07:33:20;;;;;;;180.43;100.13;;;0.00;99.90;;;;;;6138383;23;20045;-75
2024/01/24 07:35:48;;;;;;;194.23;112.32;;;0.00;99.90;;;;;;6145387;23;20018;-74
2024/01/24 07:38:15;;;;;;;182.70;104.90;;;-0.10;99.90;;;;;;6134089;23;20064;-74
2024/01/24 07:40:43;;;;;;;162.73;94.25;;;-0.10;99.90;;;;;;6129357;23;20021;-74
2024/01/24 07:43:10;;;;;;;144.95;85.78;;;-0.10;99.90;;;;;;6133238;23;20589;-74
2024/01/24 07:45:38;;;;;;;147.27;87.00;;;0.00;1.00;;;;;;6122243;23;20029;-74
2024/01/24 07:48:07;;;;;;;148.75;93.13;;;0.00;99.90;;;;;;6122470;23;20391;-75
2024/01/24 07:50:37;;;;;;;168.20;97.65;;;0.00;99.90;;;;;;6135198;23;20010;-74
2024/01/24 07:53:05;;;;;;;146.27;85.85;;;0.00;1.00;;;;;;6141825;23;20462;-74
2024/01/24 07:55:32;;;;;;;144.75;86.80;;;0.20;99.90;;;;;;6144660;23;20014;-76
2024/01/24 07:58:00;;;;;;;142.07;83.85;;;0.40;1.00;;;;;;6164478;23;20021;-75
2024/01/24 08:00:27;;;;;;;136.90;79.28;;;0.70;99.90;;;;;;6163156;23;20018;-74
2024/01/24 08:02:55;;;;;;;128.73;73.38;;;0.90;1.00;;;;;;6162950;23;20068;-73
2024/01/24 08:05:23;;;;;;;102.60;61.17;;;1.00;1.00;;;;;;6126071;23;20024;-73
2024/01/24 08:07:52;;;;;;;132.93;76.40;;;1.10;1.00;;;;;;6162864;23;20017;-74
2024/01/24 08:10:20;;;;;;;140.20;79.45;;;1.20;1.00;;;;;;6151589;23;20014;-73
2024/01/24 08:12:47;;;;;;;146.90;82.68;;;1.20;1.00;;;;;;6152941;23;20018;-74
2024/01/24 08:15:15;;;;;;;138.18;80.25;;;1.50;1.00;;;;;;6164338;23;20668;-74
2024/01/24 08:17:42;;;;;;;137.77;78.85;;;1.30;1.00;;;;;;6164593;23;20053;-75
2024/01/24 08:20:11;;;;;;;151.27;87.68;;;1.30;1.00;;;;;;6165903;23;20439;-74
2024/01/24 08:22:38;;;;;;;154.88;85.75;;;1.30;1.00;;;;;;6172768;23;20017;-74
2024/01/24 08:25:09;;;;;;;164.10;92.93;;;1.30;99.90;;;;;;6143111;23;20045;-76
2024/01/24 08:27:37;;;;;;;175.80;95.40;;;1.50;1.00;;;;;;6159599;23;20081;-75
2024/01/24 08:30:06;;;;;;;177.73;102.07;;;1.60;99.90;;;;;;6170812;23;20014;-74
2024/01/24 08:32:34;;;;;;;175.68;98.47;;;1.70;1.00;;;;;;6164070;23;20383;-75
2024/01/24 08:35:01;;;;;;;151.98;87.10;;;1.80;1.00;;;;;;6130085;23;20124;-74
2024/01/24 08:37:29;;;;;;;166.32;95.93;;;1.90;1.00;;;;;;6165979;23;20295;-75
2024/01/24 08:39:56;;;;;;;183.43;100.88;;;2.10;99.90;;;;;;6154056;23;20025;-74
2024/01/24 08:42:25;;;;;;;176.43;101.78;;;2.30;99.90;;;;;;6165586;23;20045;-74
2024/01/24 08:44:53;;;;;;;177.25;102.22;;;2.30;1.00;;;;;;6164776;23;20069;-76
2024/01/24 08:47:20;;;;;;;192.18;107.72;;;2.50;1.00;;;;;;6167011;23;20093;-74
2024/01/24 08:49:48;;;;;;;192.48;111.05;;;2.70;1.00;;;;;;6166423;23;20018;-75
2024/01/24 08:52:15;;;;;;;194.82;116.05;;;2.60;1.00;;;;;;6165401;23;20068;-75
2024/01/24 08:54:44;;;;;;;197.25;116.28;;;2.60;1.00;;;;;;6164611;23;20010;-74
2024/01/24 08:57:11;;;;;;;202.68;114.85;;;2.50;1.00;;;;;;6164184;23;20064;-75
2024/01/24 08:59:40;;;;;;;200.82;113.00;;;2.40;1.00;;;;;;6164635;23;20101;-73
2024/01/24 09:02:08;;;;;;;203.80;114.75;;;2.30;99.90;;;;;;6164519;23;20025;-75
2024/01/24 09:04:36;;;;;;;211.43;118.47;;;2.50;5.90;;;;;;6165355;23;20149;-76
2024/01/24 09:07:04;;;;;;;191.70;112.70;;;2.70;1.00;;;;;;6157607;23;20018;-75
2024/01/24 09:09:33;;;;;;;154.75;89.03;;;2.80;99.90;;;;;;6169429;23;20068;-74
2024/01/24 09:12:00;;;;;;;184.50;109.60;;;3.10;99.90;;;;;;6166226;23;20093;-77
2024/01/24 09:14:28;;;;;;;232.73;135.70;;;3.30;99.90;;;;;;6165262;23;20739;-75
2024/01/24 09:16:57;;;;;;;220.90;129.73;;;3.40;1.00;;;;;;6129472;23;20018;-75
2024/01/24 09:19:24;;;;;;;240.10;142.27;;;3.50;99.90;;;;;;6155940;23;20025;-75
2024/01/24 09:21:52;;;;;;;204.65;123.32;;;3.70;1.00;;;;;;6165032;23;20044;-75
2024/01/24 09:24:19;;;;;;;206.15;122.97;;;3.80;1.00;;;;;;6163460;23;20013;-75
2024/01/24 09:26:47;;;;;;;211.27;123.05;;;4.10;1.00;;;;;;6153363;23;20195;-73
2024/01/24 09:29:15;;;;;;;189.27;113.68;;;4.30;1.00;;;;;;6129322;23;20025;-75
2024/01/24 09:31:45;;;;;;;154.90;92.38;;;4.20;1.00;;;;;;6168036;23;20013;-74
2024/01/24 09:34:14;;;;;;;170.27;104.32;;;4.20;1.00;;;;;;6138253;23;20017;-78
2024/01/24 09:36:42;;;;;;;181.95;109.13;;;4.10;1.00;;;;;;6147681;23;20028;-75
2024/01/24 09:39:10;;;;;;;192.35;113.45;;;4.20;1.00;;;;;;6176552;23;20096;-75
2024/01/24 09:41:41;;;;;;;184.88;111.15;;;4.40;1.00;;;;;;6127928;23;20367;-74
2024/01/24 09:44:10;;;;;;;184.73;111.60;;;4.70;1.00;;;;;;6164812;23;20324;-75
2024/01/24 09:46:40;;;;;;;167.82;102.20;;;4.80;19.90;;;;;;6164827;23;20013;-76
2024/01/24 09:49:08;;;;;;;161.63;98.13;;;4.90;30.00;;;;;;6128640;23;20024;-74
2024/01/24 09:51:38;;;;;;;167.20;104.35;;;5.10;99.90;;;;;;6128474;23;20029;-75
2024/01/24 09:54:07;;;;;;;182.00;109.63;;;5.20;99.90;;;;;;6163507;23;20052;-75
2024/01/24 09:56:36;;;;;;;172.70;109.60;;;5.60;1.00;;;;;;6166171;23;20013;-77
2024/01/24 09:59:05;;;;;;;180.85;113.13;;;6.00;1.00;;;;;;6171404;23;20096;-76
2024/01/24 10:01:35;;;;;;;181.15;111.78;;;6.20;1.00;;;;;;6166437;23;20101;-75
2024/01/24 10:04:03;;;;;;;199.25;123.07;;;6.00;1.00;;;;;;6164398;23;20068;-75
2024/01/24 10:06:32;;;;;;;193.30;123.90;;;5.70;30.30;;;;;;6178173;23;20016;-76
2024/01/24 10:09:01;;;;;;;196.70;124.45;;;5.50;1.00;;;;;;6174526;23;20024;-76
2024/01/24 10:11:29;;;;;;;192.88;118.10;;;5.60;1.00;;;;;;6165744;23;20022;-77
2024/01/24 10:13:57;;;;;;;186.20;121.03;;;5.80;1.00;;;;;;6153578;23;20017;-76
2024/01/24 10:16:25;;;;;;;184.80;118.15;;;6.10;1.00;;;;;;6167803;23;20013;-75
2024/01/24 10:18:54;;;;;;;206.80;129.68;;;6.20;99.90;;;;;;6169358;23;20014;-76
2024/01/24 10:21:22;;;;;;;202.82;129.30;;;6.30;1.00;;;;;;6167904;23;20096;-74
2024/01/24 10:23:49;;;;;;;183.82;121.22;;;6.60;1.00;;;;;;6166002;23;20024;-74
2024/01/24 10:26:18;;;;;;;192.35;123.93;;;6.80;1.00;;;;;;6129264;23;20093;-73
2024/01/24 10:28:46;;;;;;;164.27;105.28;;;6.90;99.90;;;;;;6153722;23;20121;-74
2024/01/24 10:31:13;;;;;;;170.38;110.40;;;6.60;99.90;;;;;;6167491;23;20098;-76
2024/01/24 10:33:41;;;;;;;158.23;102.47;;;6.30;1.00;;;;;;6172074;23;20081;-75
2024/01/24 10:36:11;;;;;;;157.52;100.70;;;6.20;1.00;;;;;;6137662;23;20046;-75
2024/01/24 10:38:48;;;;;;;163.55;104.20;;;6.30;1.00;;;;;;6171909;23;20017;-76
2024/01/24 10:41:16;;;;;;;157.25;102.35;;;6.40;1.00;;;;;;6166960;23;20017;-76
2024/01/24 10:43:52;;;;;;;167.25;107.72;;;6.40;1.00;;;;;;6128028;23;20025;-76
2024/01/24 10:46:20;;;;;;;165.90;107.43;;;6.50;1.00;;;;;;6152374;23;20033;-75
2024/01/24 10:48:48;;;;;;;169.23;112.32;;;6.40;1.00;;;;;;6163735;23;20098;-74
2024/01/24 10:51:16;;;;;;;162.70;109.72;;;6.50;1.00;;;;;;6163096;23;20017;-74
2024/01/24 10:53:45;;;;;;;169.85;109.68;;;6.50;1.00;;;;;;6162536;23;20130;-74
2024/01/24 10:56:16;;;;;;;166.85;111.43;;;6.50;1.00;;;;;;6162022;23;20025;-75
2024/01/24 10:58:48;;;;;;;170.70;108.78;;;6.60;1.00;;;;;;6127410;23;20045;-78
2024/01/24 11:01:15;;;;;;;164.27;105.50;;;6.60;1.00;;;;;;6162713;23;20378;-76
2024/01/24 11:03:46;;;;;;;159.13;102.22;;;6.60;1.00;;;;;;6163869;23;20022;-78
2024/01/24 11:06:16;;;;;;;164.90;105.50;;;6.80;1.00;;;;;;6175648;23;20029;-75
2024/01/24 11:08:48;;;;;;;166.82;104.70;;;7.00;1.00;;;;;;6180308;23;20084;-75
2024/01/24 11:11:21;;;;;;;210.10;129.70;;;7.30;99.90;;;;;;6156049;23;20442;-74
2024/01/24 11:13:52;;;;;;;192.82;125.57;;;7.20;99.90;;;;;;6154829;23;20450;-76
2024/01/24 11:16:29;;;;;;;184.93;116.63;;;7.30;99.90;;;;;;6128442;23;20138;-75
2024/01/24 11:19:00;;;;;;;169.55;110.50;;;7.10;99.90;;;;;;6164493;23;20094;-75
2024/01/24 11:21:29;;;;;;;173.20;112.43;;;7.20;1.00;;;;;;6162982;23;20020;-75
2024/01/24 11:23:57;;;;;;;169.73;109.03;;;7.40;99.90;;;;;;6150935;23;20014;-76
2024/01/24 11:26:50;;;;;;;185.40;117.30;;;7.40;45.70;;;;;;6127332;23;20396;-76
2024/01/24 11:29:19;;;;;;;186.05;120.05;;;7.30;99.90;;;;;;6127570;23;20043;-78
2024/01/24 11:31:47;;;;;;;193.60;123.43;;;7.30;1.00;;;;;;6163258;23;20024;-75
2024/01/24 11:34:17;;;;;;;171.68;112.95;;;7.60;99.90;;;;;;6152677;23;20060;-75
2024/01/24 11:36:47;;;;;;;175.35;114.68;;;7.90;99.90;;;;;;6128741;23;20014;-75
2024/01/24 11:39:35;;;;;;;181.13;114.80;;;8.10;1.00;;;;;;6152209;23;20092;-74
2024/01/24 11:42:36;;;;;;;182.65;118.13;;;8.40;1.00;;;;;;6162991;23;20018;-76
2024/01/24 11:45:19;;;;;;;176.80;117.07;;;8.50;1.00;;;;;;6163270;23;20089;-73
2024/01/24 11:47:48;;;;;;;190.30;122.05;;;8.60;1.00;;;;;;6130130;23;20024;-74
2024/01/24 11:50:16;;;;;;;196.52;126.28;;;8.40;1.00;;;;;;6164764;23;20024;-75
2024/01/24 11:52:44;;;;;;;202.52;128.80;;;8.10;1.00;;;;;;6152939;23;20018;-76
2024/01/24 11:55:12;;;;;;;213.32;134.32;;;7.90;1.00;;;;;;6127679;23;20041;-75
2024/01/24 11:57:41;;;;;;;196.52;127.13;;;7.90;1.00;;;;;;6123326;23;20030;-77
2024/01/24 12:00:14;;;;;;;196.38;126.20;;;8.10;1.00;;;;;;6149150;23;20022;-75
2024/01/24 12:02:44;;;;;;;185.00;119.63;;;8.20;1.00;;;;;;6137887;23;20410;-78
2024/01/24 12:05:12;;;;;;;160.18;100.75;;;8.30;1.00;;;;;;6136111;23;20210;-77
2024/01/24 12:07:40;;;;;;;138.07;89.25;;;8.30;1.00;;;;;;6136660;23;20619;-75
2024/01/24 12:10:09;;;;;;;139.88;89.43;;;8.30;99.90;;;;;;6135033;23;20014;-75
2024/01/24 12:12:37;;;;;;;151.45;96.63;;;8.30;99.90;;;;;;6147909;23;20041;-75
2024/01/24 12:15:06;;;;;;;132.38;89.78;;;8.40;99.90;;;;;;6133486;23;20097;-74
2024/01/24 12:17:35;;;;;;;136.23;87.88;;;8.40;99.90;;;;;;6122841;23;20073;-73
2024/01/24 12:20:05;;;;;;;129.70;83.57;;;8.50;99.90;;;;;;6147356;23;20053;-75
2024/01/24 12:22:33;;;;;;;133.77;85.50;;;8.50;99.90;;;;;;6147851;23;20588;-74
2024/01/24 12:25:01;;;;;;;145.85;91.35;;;8.40;95.70;;;;;;6133788;23;20263;-74
2024/01/24 12:27:28;;;;;;;154.35;98.05;;;8.60;99.90;;;;;;6124820;23;20443;-77